Disclaimer

Please do not use the information listed here in-flight or in-navigation, as they are not provided to us by the airports but are provided by volunteers, so they might be outdated.

Search


Regions


Airport information page

Radio informations:
Common traffic adv. frequency (CTAF) - 122.9 MHz
AWOS 3 - 118.325 MHz

Airport informations:
Latitude: 28° 12' 06.21" N
Longitude: 177° 22' 50.29" W
Elevation: 13 feet - 4 meters
Operating hours: N/A
Operating agency: U.S.CIVIL AIRPORT WHEREIN PERMIT COVERS USE BY TRANSIT MILITARY AIRCRAFT
Timezone: UTC-11
Fuel: JP-5, Keroscene MIL Spec T-5624

Runway information:
06/24 - 7904 x 200 feet< - >2409 x 61 meters

Recent METARs:
PMDY 181456Z AUTO 08012KT 10SM BKN043 18/11 A3045 RMK AO2 SLP311 T01780106 55005
PMDY 181556Z AUTO 07013KT 10SM OVC043 18/09 A3045 RMK AO2 SLP311 T01830094
PMDY 181556Z AUTO 07013KT 10SM OVC043 18/09 A3045 RMK AO2 SLP311 T01830094

Airport on the map: